Time;durP1;ratioP1;P1;durP2;ratioP2;P2;SDS_P1;SDS_P2;PMS_P1;PMS_P2;Temp;Humidity;BMP_temperature;BMP_pressure;BME280_temperature;BME280_humidity;BME280_pressure;Samples;Min_cycle;Max_cycle;Signal;HPM_P1;HPM_P2
2022/09/16 00:00:17;;;;;;;3.50;0.53;;;12.30;99.90;;;;;;5091344;28;20052;-49
2022/09/16 00:02:43;;;;;;;4.70;0.70;;;12.30;99.90;;;;;;5089991;28;20309;-50
2022/09/16 00:05:08;;;;;;;1.70;0.83;;;12.20;99.90;;;;;;5090574;28;20405;-50
2022/09/16 00:07:34;;;;;;;4.93;1.23;;;12.20;99.90;;;;;;5090339;28;20647;-53
2022/09/16 00:10:01;;;;;;;4.20;1.27;;;12.20;99.90;;;;;;5102238;28;20035;-50
2022/09/16 00:12:26;;;;;;;4.75;1.10;;;12.20;99.90;;;;;;5110756;28;20487;-51
2022/09/16 00:14:53;;;;;;;5.50;0.70;;;12.20;99.90;;;;;;5096927;28;20034;-56
2022/09/16 00:17:19;;;;;;;5.57;0.88;;;12.10;99.90;;;;;;5090059;28;20274;-50
2022/09/16 00:19:44;;;;;;;8.20;0.75;;;12.10;99.90;;;;;;5084115;28;20128;-53
2022/09/16 00:22:10;;;;;;;5.60;0.90;;;12.10;99.90;;;;;;5089936;28;20048;-49
2022/09/16 00:24:35;;;;;;;5.38;0.40;;;12.10;99.90;;;;;;5085623;28;20107;-50
2022/09/16 00:27:01;;;;;;;3.38;0.50;;;12.00;99.90;;;;;;5108061;28;20105;-51
2022/09/16 00:29:26;;;;;;;3.57;0.97;;;12.00;99.90;;;;;;5106926;28;20046;-53
2022/09/16 00:31:52;;;;;;;4.88;0.40;;;12.00;99.90;;;;;;5110137;28;20696;-50
2022/09/16 00:34:18;;;;;;;1.67;0.30;;;12.10;99.90;;;;;;5108335;28;20046;-49
2022/09/16 00:36:43;;;;;;;2.83;0.40;;;12.10;99.90;;;;;;5072501;28;20037;-50
2022/09/16 00:39:09;;;;;;;2.43;0.30;;;12.10;99.90;;;;;;5082926;28;20047;-50
2022/09/16 00:41:36;;;;;;;3.17;0.57;;;12.10;99.90;;;;;;5114444;28;20035;-50
2022/09/16 00:44:05;;;;;;;4.82;0.60;;;12.20;99.90;;;;;;5113944;28;20047;-53
2022/09/16 00:46:46;;;;;;;3.53;0.50;;;12.20;99.90;;;;;;5099813;28;20051;-55
2022/09/16 00:49:23;;;;;;;8.35;0.60;;;12.20;99.90;;;;;;5114099;28;20099;-52
2022/09/16 00:51:51;;;;;;;1.08;0.40;;;12.20;99.90;;;;;;5092043;28;20039;-49
2022/09/16 00:54:18;;;;;;;2.35;0.40;;;12.20;99.90;;;;;;5093064;28;20028;-50
2022/09/16 00:56:46;;;;;;;5.03;0.40;;;12.20;99.90;;;;;;5096406;28;20423;-52
2022/09/16 00:59:25;;;;;;;3.28;0.40;;;12.20;99.90;;;;;;5100228;28;20055;-52
2022/09/16 01:01:52;;;;;;;6.10;1.02;;;12.30;99.90;;;;;;5112337;28;20071;-50
2022/09/16 01:04:28;;;;;;;2.95;0.50;;;12.30;99.90;;;;;;5113691;28;20114;-50
2022/09/16 01:06:55;;;;;;;2.72;0.30;;;12.30;99.90;;;;;;5103111;28;20524;-50
2022/09/16 01:09:24;;;;;;;5.10;0.63;;;12.30;99.90;;;;;;5072710;28;20033;-53
2022/09/16 01:11:50;;;;;;;2.30;0.55;;;12.30;99.90;;;;;;5077060;28;20040;-52
2022/09/16 01:17:20;;;;;;;3.72;0.30;;;12.30;99.90;;;;;;5110826;28;20412;-52
2022/09/16 01:20:05;;;;;;;2.50;0.38;;;12.30;99.90;;;;;;5073294;28;20041;-49
2022/09/16 01:22:51;;;;;;;3.78;0.30;;;12.40;99.90;;;;;;5073163;28;20444;-50
2022/09/16 01:25:35;;;;;;;4.15;0.40;;;12.40;99.90;;;;;;5077524;28;20039;-49
2022/09/16 01:28:12;;;;;;;5.70;0.45;;;12.40;99.90;;;;;;5088065;28;20036;-50
2022/09/16 01:31:23;;;;;;;4.55;0.40;;;12.40;99.90;;;;;;5084538;28;20436;-50
2022/09/16 01:34:17;;;;;;;7.10;0.70;;;12.50;99.90;;;;;;5067208;28;20050;-50
2022/09/16 01:37:05;;;;;;;3.45;0.50;;;12.50;99.90;;;;;;5111458;28;20488;-50
2022/09/16 01:39:57;;;;;;;1.55;0.30;;;12.50;99.90;;;;;;5089080;28;20059;-51
2022/09/16 01:42:55;;;;;;;3.25;0.50;;;12.50;99.90;;;;;;5110218;28;20043;-50
2022/09/16 01:45:42;;;;;;;2.00;0.50;;;12.50;99.90;;;;;;5106888;28;20123;-55
2022/09/16 01:48:27;;;;;;;2.38;0.30;;;12.50;99.90;;;;;;5092900;28;20040;-49
2022/09/16 01:51:11;;;;;;;1.00;0.30;;;12.50;99.90;;;;;;5094660;28;20039;-51
2022/09/16 01:53:47;;;;;;;2.63;0.60;;;12.50;99.90;;;;;;5082803;28;20041;-53
2022/09/16 01:56:24;;;;;;;3.33;1.20;;;12.50;99.90;;;;;;5082330;28;20036;-49
2022/09/16 01:59:09;;;;;;;0.93;0.17;;;12.50;99.90;;;;;;5092963;28;20040;-50
2022/09/16 02:02:00;;;;;;;3.28;0.40;;;12.40;99.90;;;;;;5095988;28;20405;-50
2022/09/16 02:04:30;;;;;;;4.30;0.43;;;12.40;99.90;;;;;;5092208;28;20036;-50
2022/09/16 02:06:58;;;;;;;2.60;0.40;;;12.40;99.90;;;;;;5093490;28;20556;-50
2022/09/16 02:09:32;;;;;;;1.55;0.22;;;12.40;99.90;;;;;;5091514;28;20080;-54
2022/09/16 02:12:04;;;;;;;3.50;0.50;;;12.40;99.90;;;;;;5092173;28;20047;-53
2022/09/16 02:14:33;;;;;;;5.63;0.77;;;12.40;99.90;;;;;;5106643;28;20404;-52
2022/09/16 02:17:13;;;;;;;3.22;0.90;;;12.40;99.90;;;;;;5101868;28;20036;-51
2022/09/16 02:19:45;;;;;;;3.30;0.43;;;12.40;99.90;;;;;;5091259;28;20559;-50
2022/09/16 02:22:16;;;;;;;4.97;0.60;;;12.50;99.90;;;;;;5101026;28;20115;-50
2022/09/16 02:24:45;;;;;;;3.90;0.40;;;12.40;99.90;;;;;;5112069;28;20054;-52
2022/09/16 02:27:16;;;;;;;3.90;0.25;;;12.40;99.90;;;;;;5110833;28;20040;-50
2022/09/16 02:30:04;;;;;;;1.63;0.22;;;12.40;99.90;;;;;;5075312;28;20075;-53
2022/09/16 02:32:32;;;;;;;2.97;0.22;;;12.40;99.90;;;;;;5088733;28;20035;-53
2022/09/16 02:35:00;;;;;;;1.90;0.30;;;12.40;99.90;;;;;;5071223;28;20036;-54
2022/09/16 02:37:35;;;;;;;4.07;0.28;;;12.40;99.90;;;;;;5086651;28;20039;-52
2022/09/16 02:40:08;;;;;;;3.58;0.40;;;12.40;99.90;;;;;;5090948;28;20048;-51
2022/09/16 02:42:34;;;;;;;3.05;0.77;;;12.40;99.90;;;;;;5090988;28;20048;-51
2022/09/16 02:45:01;;;;;;;2.10;0.30;;;12.40;99.90;;;;;;5072886;28;20041;-50
2022/09/16 02:47:36;;;;;;;4.18;0.60;;;12.40;99.90;;;;;;5084390;28;20302;-49
2022/09/16 02:50:13;;;;;;;1.75;0.30;;;12.30;99.90;;;;;;5091713;28;20039;-49
2022/09/16 02:52:42;;;;;;;;;;;12.30;99.90;;;;;;5083855;28;20477;-50
2022/09/16 02:55:11;;;;;;;3.00;0.40;;;12.30;99.90;;;;;;5070941;28;19917;-52
2022/09/16 02:57:37;;;;;;;10.82;1.13;;;12.30;99.90;;;;;;5083772;28;20055;-50
2022/09/16 03:00:04;;;;;;;3.58;0.80;;;12.30;99.90;;;;;;5091617;28;20055;-53
2022/09/16 03:02:32;;;;;;;6.85;0.88;;;12.30;99.90;;;;;;5096401;28;20031;-50
2022/09/16 03:04:59;;;;;;;2.80;0.65;;;12.30;99.90;;;;;;5090745;28;20036;-49
2022/09/16 03:07:25;;;;;;;4.07;0.65;;;12.30;99.90;;;;;;5084928;28;20047;-51
2022/09/16 03:09:51;;;;;;;7.65;0.50;;;12.30;99.90;;;;;;5090956;28;20414;-52
2022/09/16 03:12:40;;;;;;;3.50;1.05;;;12.30;99.90;;;;;;5097880;28;20104;-51
2022/09/16 03:15:09;;;;;;;4.70;0.45;;;12.20;99.90;;;;;;5070538;28;20524;-50
2022/09/16 03:18:06;;;;;;;2.80;0.40;;;12.20;99.90;;;;;;5081140;28;20448;-50
2022/09/16 03:20:44;;;;;;;1.77;0.50;;;12.20;99.90;;;;;;5070639;28;20050;-50
2022/09/16 03:23:17;;;;;;;2.20;0.60;;;12.20;99.90;;;;;;5088615;28;20543;-53
2022/09/16 03:26:11;;;;;;;3.22;0.30;;;12.10;99.90;;;;;;5070784;28;20028;-49
2022/09/16 03:29:11;;;;;;;3.88;0.63;;;12.10;99.90;;;;;;5087888;28;20050;-51
2022/09/16 03:31:49;;;;;;;3.78;0.52;;;12.00;99.90;;;;;;5081562;28;20121;-50
2022/09/16 03:34:22;;;;;;;3.30;0.30;;;12.00;99.90;;;;;;5078696;28;20445;-51
2022/09/16 03:36:59;;;;;;;2.03;0.30;;;12.00;99.90;;;;;;5070861;28;20029;-55
2022/09/16 03:39:24;;;;;;;2.30;0.30;;;11.90;99.90;;;;;;5109564;28;20050;-50
2022/09/16 03:41:50;;;;;;;4.30;0.57;;;11.90;99.90;;;;;;5111416;28;20036;-55
2022/09/16 03:44:16;;;;;;;3.47;0.25;;;11.90;99.90;;;;;;5081674;28;20052;-50
2022/09/16 03:46:42;;;;;;;3.42;0.50;;;11.90;99.90;;;;;;5070723;28;20117;-50
2022/09/16 03:49:07;;;;;;;1.42;0.45;;;11.90;99.90;;;;;;5088405;28;20047;-50
2022/09/16 03:51:33;;;;;;;3.33;0.30;;;11.90;99.90;;;;;;5091198;28;20043;-50
2022/09/16 03:53:59;;;;;;;3.23;0.40;;;11.90;99.90;;;;;;5100049;28;20066;-53
2022/09/16 03:56:24;;;;;;;4.82;0.60;;;11.90;99.90;;;;;;5090490;28;20301;-49
2022/09/16 03:58:50;;;;;;;4.77;0.73;;;11.80;99.90;;;;;;5091043;28;20219;-50
2022/09/16 04:01:16;;;;;;;2.53;0.47;;;11.80;99.90;;;;;;5090496;28;20047;-50
2022/09/16 04:03:42;;;;;;;4.72;0.40;;;11.80;99.90;;;;;;5082984;28;20033;-50
2022/09/16 04:06:08;;;;;;;3.03;0.40;;;11.80;99.90;;;;;;5088410;28;20491;-49
2022/09/16 04:08:34;;;;;;;3.10;0.40;;;11.90;99.90;;;;;;5091024;28;20044;-52
2022/09/16 04:11:04;;;;;;;2.20;0.60;;;11.90;99.90;;;;;;5088813;28;20044;-53
2022/09/16 04:13:31;;;;;;;2.70;0.47;;;11.90;99.90;;;;;;5096775;28;20036;-50
2022/09/16 04:15:56;;;;;;;3.28;0.75;;;11.90;99.90;;;;;;5095406;28;20043;-50
2022/09/16 04:18:22;;;;;;;2.40;0.30;;;11.90;99.90;;;;;;5089033;28;20032;-50
2022/09/16 04:20:47;;;;;;;3.03;0.65;;;11.90;99.90;;;;;;5070013;28;20043;-50
2022/09/16 04:23:13;;;;;;;2.65;1.05;;;11.90;99.90;;;;;;5078357;28;20458;-49
2022/09/16 04:25:39;;;;;;;5.63;0.87;;;11.90;99.90;;;;;;5100820;28;20379;-50
2022/09/16 04:28:05;;;;;;;4.40;0.52;;;11.90;99.90;;;;;;5091381;28;20534;-50
2022/09/16 04:30:31;;;;;;;4.82;0.50;;;11.80;99.90;;;;;;5090416;28;20123;-49
2022/09/16 04:32:57;;;;;;;5.53;1.15;;;11.70;99.90;;;;;;5091192;28;20069;-53
2022/09/16 04:35:23;;;;;;;5.00;0.83;;;11.70;99.90;;;;;;5105662;28;20047;-50
2022/09/16 04:37:50;;;;;;;2.25;0.68;;;11.70;99.90;;;;;;5089595;28;20282;-50
2022/09/16 04:40:16;;;;;;;4.47;0.60;;;11.70;99.90;;;;;;5071544;28;20044;-50
2022/09/16 04:42:48;;;;;;;5.57;0.93;;;11.70;99.90;;;;;;5079077;28;20055;-53
2022/09/16 04:45:14;;;;;;;5.13;0.65;;;11.80;99.90;;;;;;5107997;28;20040;-51
2022/09/16 04:47:39;;;;;;;4.70;0.50;;;11.80;99.90;;;;;;5089357;28;20040;-50
2022/09/16 04:50:05;;;;;;;3.45;0.60;;;11.80;99.90;;;;;;5107383;28;20129;-53
2022/09/16 04:52:31;;;;;;;5.40;1.10;;;11.80;99.90;;;;;;5092613;28;20484;-52
2022/09/16 04:54:56;;;;;;;3.73;0.87;;;11.80;99.90;;;;;;5093284;28;20500;-56
2022/09/16 04:57:22;;;;;;;3.70;0.87;;;11.80;99.90;;;;;;5080739;28;20266;-50
2022/09/16 04:59:48;;;;;;;3.50;0.75;;;11.80;99.90;;;;;;5104701;28;20540;-49
2022/09/16 05:02:14;;;;;;;4.85;1.35;;;11.80;99.90;;;;;;5079319;28;20566;-49
2022/09/16 05:04:39;;;;;;;3.73;0.90;;;11.80;99.90;;;;;;5095237;28;20067;-53
2022/09/16 05:07:05;;;;;;;5.80;0.83;;;11.80;99.90;;;;;;5083721;28;20051;-51
2022/09/16 05:09:31;;;;;;;2.60;0.60;;;11.70;99.90;;;;;;5091111;28;20299;-49
2022/09/16 05:11:56;;;;;;;7.60;0.63;;;11.70;99.90;;;;;;5096699;28;20039;-53
2022/09/16 05:14:22;;;;;;;9.57;1.07;;;11.70;99.90;;;;;;5100765;28;20063;-50
2022/09/16 05:16:48;;;;;;;2.77;0.40;;;11.70;99.90;;;;;;5090216;28;20040;-50
2022/09/16 05:19:14;;;;;;;6.10;0.50;;;11.60;99.90;;;;;;5084961;28;20044;-54
2022/09/16 05:21:40;;;;;;;3.90;0.50;;;11.60;99.90;;;;;;5086564;28;20569;-49
2022/09/16 05:24:08;;;;;;;2.60;0.65;;;11.60;99.90;;;;;;5098887;28;20123;-50
2022/09/16 05:26:36;;;;;;;3.50;0.60;;;11.60;99.90;;;;;;5092724;28;20075;-53
2022/09/16 05:29:04;;;;;;;1.73;1.13;;;11.60;99.90;;;;;;5095450;28;20091;-52
2022/09/16 05:31:33;;;;;;;4.72;0.40;;;11.60;99.90;;;;;;5110059;28;20480;-50
2022/09/16 05:34:10;;;;;;;4.72;0.70;;;11.60;99.90;;;;;;5108788;28;20082;-50
2022/09/16 05:36:37;;;;;;;3.05;0.70;;;11.60;99.90;;;;;;5092915;28;20046;-49
2022/09/16 05:39:03;;;;;;;3.60;0.60;;;11.60;99.90;;;;;;5092441;28;20054;-50
2022/09/16 05:41:29;;;;;;;5.20;0.93;;;11.60;99.90;;;;;;5092765;28;20036;-49
2022/09/16 05:43:59;;;;;;;4.68;0.80;;;11.60;99.90;;;;;;5089552;28;20058;-50
2022/09/16 05:46:25;;;;;;;11.40;1.10;;;11.60;99.90;;;;;;5093284;28;20063;-53
2022/09/16 05:48:51;;;;;;;3.72;0.93;;;11.60;99.90;;;;;;5092820;28;20040;-53
2022/09/16 05:51:19;;;;;;;4.88;0.50;;;11.60;99.90;;;;;;5072380;28;20122;-50
2022/09/16 05:53:46;;;;;;;7.22;0.88;;;11.60;99.90;;;;;;5084767;28;20063;-51
2022/09/16 05:56:17;;;;;;;4.43;0.55;;;11.70;99.90;;;;;;5102329;28;20507;-50
2022/09/16 05:58:43;;;;;;;4.18;0.60;;;11.60;99.90;;;;;;5099377;27;20040;-50
2022/09/16 06:01:13;;;;;;;;;;;11.60;99.90;;;;;;5075521;28;20052;-53
2022/09/16 06:03:40;;;;;;;7.75;0.85;;;11.60;99.90;;;;;;5071650;28;20424;-51
2022/09/16 06:06:06;;;;;;;4.53;0.52;;;11.70;99.90;;;;;;5076098;28;20227;-49
2022/09/16 06:08:34;;;;;;;3.70;0.73;;;11.90;99.90;;;;;;5092195;28;20048;-49
2022/09/16 06:11:01;;;;;;;4.43;1.13;;;12.20;99.90;;;;;;5094261;28;20039;-50
2022/09/16 06:13:27;;;;;;;5.05;0.52;;;12.60;99.90;;;;;;5110558;28;20448;-51
2022/09/16 06:15:55;;;;;;;8.52;0.85;;;12.90;99.90;;;;;;5084955;28;20045;-53
2022/09/16 06:18:25;;;;;;;2.35;0.65;;;13.10;99.90;;;;;;5083665;28;20050;-52
2022/09/16 06:20:51;;;;;;;6.93;0.88;;;13.30;99.90;;;;;;5086125;28;20090;-53
2022/09/16 06:23:17;;;;;;;4.45;0.40;;;13.40;99.90;;;;;;5107314;28;20044;-55
2022/09/16 06:25:43;;;;;;;6.45;0.85;;;13.40;99.90;;;;;;5081823;28;20535;-54
2022/09/16 06:28:10;;;;;;;5.82;0.63;;;13.40;99.90;;;;;;5071399;28;20093;-53
2022/09/16 06:30:39;;;;;;;4.10;0.50;;;13.40;99.90;;;;;;5090433;28;20071;-52
2022/09/16 06:33:05;;;;;;;2.15;0.30;;;13.40;99.90;;;;;;5091726;28;20108;-50
2022/09/16 06:35:33;;;;;;;;;;;13.40;99.90;;;;;;5074601;28;20036;-53
2022/09/16 06:37:58;;;;;;;5.40;0.80;;;13.40;99.90;;;;;;5081268;28;19916;-50
2022/09/16 06:40:24;;;;;;;4.13;0.30;;;13.40;99.90;;;;;;5091280;28;20043;-51
2022/09/16 06:42:53;;;;;;;3.65;1.17;;;13.30;99.90;;;;;;5073143;28;20048;-52
2022/09/16 06:45:19;;;;;;;6.65;0.40;;;13.30;99.90;;;;;;5071098;28;20043;-50
2022/09/16 06:47:44;;;;;;;7.70;0.47;;;13.30;99.90;;;;;;5075990;28;20028;-50
2022/09/16 06:50:10;;;;;;;5.97;0.47;;;13.30;99.90;;;;;;5091906;28;20043;-50
2022/09/16 06:52:36;;;;;;;4.60;0.40;;;13.40;99.90;;;;;;5079867;28;20036;-53
2022/09/16 06:55:03;;;;;;;4.90;0.40;;;13.40;99.90;;;;;;5070723;28;20040;-51
2022/09/16 06:57:29;;;;;;;7.20;0.80;;;13.40;99.90;;;;;;5070969;28;20056;-50
2022/09/16 06:59:55;;;;;;;2.78;0.40;;;13.40;99.90;;;;;;5071423;28;20087;-50
2022/09/16 07:02:21;;;;;;;7.13;0.57;;;13.40;99.90;;;;;;5072200;28;20072;-51
2022/09/16 07:04:46;;;;;;;6.22;0.40;;;13.30;99.90;;;;;;5083334;28;20076;-54
2022/09/16 07:07:12;;;;;;;4.28;0.40;;;13.20;99.90;;;;;;5076338;28;20040;-57
2022/09/16 07:09:38;;;;;;;5.45;0.68;;;13.20;99.90;;;;;;5069478;28;20047;-53
2022/09/16 07:12:04;;;;;;;;;;;13.20;99.90;;;;;;5066372;28;20024;-52
2022/09/16 07:14:31;;;;;;;9.43;1.77;;;13.40;99.90;;;;;;5083562;28;20407;-50
2022/09/16 07:16:57;;;;;;;12.15;1.48;;;13.50;99.90;;;;;;5069868;28;20120;-52
2022/09/16 07:19:23;;;;;;;8.90;1.40;;;13.60;99.90;;;;;;5067578;28;20059;-53
2022/09/16 07:21:49;;;;;;;;;;;13.70;99.90;;;;;;5069172;28;20044;-55
2022/09/16 07:24:14;;;;;;;7.72;0.40;;;13.80;99.90;;;;;;5076396;28;20293;-52
2022/09/16 07:26:41;;;;;;;7.50;0.80;;;13.90;99.90;;;;;;5082291;28;20039;-51
2022/09/16 07:29:10;;;;;;;13.15;1.20;;;13.90;99.90;;;;;;5069093;28;20132;-51
2022/09/16 07:31:37;;;;;;;4.85;0.32;;;13.90;99.90;;;;;;5076396;28;20051;-55
2022/09/16 07:34:04;;;;;;;7.70;0.88;;;14.10;99.90;;;;;;5065714;28;20466;-54
2022/09/16 07:36:38;;;;;;;5.13;0.45;;;14.20;99.90;;;;;;5067765;28;20583;-53
2022/09/16 07:39:04;;;;;;;5.07;0.40;;;14.30;99.90;;;;;;5070991;28;20063;-51
2022/09/16 07:41:35;;;;;;;4.57;0.60;;;14.30;99.90;;;;;;5080197;28;20101;-53
2022/09/16 07:44:02;;;;;;;9.20;0.70;;;14.30;99.90;;;;;;5070063;28;20482;-51
2022/09/16 07:46:31;;;;;;;6.97;0.60;;;14.40;99.90;;;;;;5079581;28;20106;-53
2022/09/16 07:48:59;;;;;;;4.97;1.20;;;14.60;99.90;;;;;;5063970;28;20071;-55
2022/09/16 07:51:27;;;;;;;8.25;0.57;;;14.70;99.90;;;;;;5078687;28;20067;-51
2022/09/16 07:53:54;;;;;;;6.60;0.40;;;14.80;99.90;;;;;;5077392;28;20078;-50
2022/09/16 07:56:24;;;;;;;4.80;0.40;;;14.80;99.90;;;;;;5071284;28;20209;-53
2022/09/16 07:58:50;;;;;;;3.83;0.60;;;14.90;99.90;;;;;;5071249;28;20039;-53
2022/09/16 08:01:16;;;;;;;3.28;0.30;;;15.00;99.90;;;;;;5072743;28;20127;-52
2022/09/16 08:03:43;;;;;;;3.97;0.55;;;15.10;99.90;;;;;;5067366;28;20511;-53
2022/09/16 08:06:14;;;;;;;4.72;0.60;;;15.10;99.90;;;;;;5073745;28;20040;-50
2022/09/16 08:08:40;;;;;;;5.25;0.52;;;15.30;99.90;;;;;;5073554;28;20040;-54
2022/09/16 08:11:06;;;;;;;9.05;1.02;;;15.40;99.90;;;;;;5065357;28;20040;-51
2022/09/16 08:13:33;;;;;;;9.25;1.13;;;15.50;99.90;;;;;;5067756;28;20029;-50
2022/09/16 08:16:00;;;;;;;126.80;10.07;;;15.60;99.90;;;;;;5063970;28;20055;-54
2022/09/16 08:18:26;;;;;;;15.48;1.58;;;15.70;99.90;;;;;;5067321;28;20297;-55
2022/09/16 08:20:52;;;;;;;8.35;0.80;;;15.80;99.90;;;;;;5073823;28;20052;-52
2022/09/16 08:23:18;;;;;;;7.50;1.20;;;15.90;99.90;;;;;;5068547;28;20157;-54
2022/09/16 08:25:44;;;;;;;8.57;1.30;;;16.10;99.90;;;;;;5068138;28;20043;-53
2022/09/16 08:28:14;;;;;;;5.45;0.70;;;16.20;99.90;;;;;;5064753;28;20047;-52
2022/09/16 08:30:40;;;;;;;4.18;0.88;;;16.20;99.90;;;;;;5074963;28;20074;-52
2022/09/16 08:33:06;;;;;;;9.95;0.57;;;16.40;99.90;;;;;;5069714;28;20044;-57
2022/09/16 08:35:32;;;;;;;3.97;0.60;;;16.50;99.90;;;;;;5071812;28;20049;-52
2022/09/16 08:37:58;;;;;;;4.93;1.10;;;16.50;99.80;;;;;;5094571;28;20043;-56
2022/09/16 08:40:24;;;;;;;;;;;16.60;99.50;;;;;;5085639;28;20040;-58
2022/09/16 08:43:10;;;;;;;10.25;0.95;;;16.60;99.20;;;;;;5073052;28;20336;-56
2022/09/16 08:45:58;;;;;;;9.43;0.57;;;16.80;99.40;;;;;;5075560;28;20051;-54
2022/09/16 08:48:27;;;;;;;8.93;0.75;;;16.90;99.00;;;;;;5080630;28;20043;-55
2022/09/16 08:50:54;;;;;;;10.55;0.80;;;17.00;98.40;;;;;;5084322;28;20048;-58
2022/09/16 08:53:31;;;;;;;7.13;1.08;;;17.00;98.00;;;;;;5084022;28;20404;-55
2022/09/16 08:56:00;;;;;;;12.77;0.98;;;17.10;97.50;;;;;;5085468;28;20039;-55
2022/09/16 08:58:36;;;;;;;7.03;0.85;;;17.20;97.20;;;;;;5093750;28;20103;-52
2022/09/16 09:01:12;;;;;;;4.15;0.80;;;17.30;97.00;;;;;;5091844;28;20032;-57
2022/09/16 09:03:40;;;;;;;10.40;1.50;;;17.30;96.80;;;;;;5081049;28;20073;-55
2022/09/16 09:06:19;;;;;;;5.07;0.50;;;17.40;97.10;;;;;;5068521;28;20113;-58
2022/09/16 09:08:53;;;;;;;10.75;0.50;;;17.50;97.10;;;;;;5083070;28;20051;-58
2022/09/16 09:11:33;;;;;;;7.43;0.73;;;17.60;96.20;;;;;;5081563;28;20051;-55
2022/09/16 09:14:28;;;;;;;5.40;0.60;;;17.70;96.00;;;;;;5084723;28;20093;-56
2022/09/16 09:17:06;;;;;;;15.23;1.40;;;17.80;95.60;;;;;;5086313;28;20040;-54
2022/09/16 09:19:48;;;;;;;7.70;0.65;;;17.90;96.10;;;;;;5092906;28;20038;-57
2022/09/16 09:22:43;;;;;;;10.00;1.33;;;17.90;96.40;;;;;;5093887;28;20036;-55
2022/09/16 09:25:38;;;;;;;6.85;0.68;;;18.00;96.30;;;;;;5050869;27;20365;-55
2022/09/16 09:28:36;;;;;;;5.30;0.65;;;18.10;95.90;;;;;;5102782;28;20062;-56
2022/09/16 09:31:12;;;;;;;10.45;1.13;;;18.00;95.20;;;;;;5072749;28;20045;-58
2022/09/16 09:34:00;;;;;;;11.48;0.60;;;17.70;95.10;;;;;;5087819;28;20031;-52
2022/09/16 09:36:34;;;;;;;8.90;1.13;;;17.50;95.20;;;;;;5098853;28;20390;-55
2022/09/16 09:39:33;;;;;;;7.22;0.93;;;17.20;95.80;;;;;;5096270;28;20036;-52
2022/09/16 09:42:10;;;;;;;6.43;1.52;;;17.00;96.10;;;;;;5104483;28;20799;-57
2022/09/16 09:45:13;;;;;;;9.05;0.68;;;17.10;96.70;;;;;;5091077;28;20093;-56
2022/09/16 09:47:46;;;;;;;10.93;1.13;;;17.20;96.10;;;;;;5092830;28;20040;-53
2022/09/16 09:50:24;;;;;;;6.63;1.20;;;17.40;96.30;;;;;;5078444;28;20044;-54
2022/09/16 09:53:17;;;;;;;7.75;1.50;;;17.70;96.10;;;;;;5076061;28;20036;-60
2022/09/16 09:55:43;;;;;;;11.82;0.93;;;17.80;94.10;;;;;;5106177;28;20076;-55
2022/09/16 09:58:33;;;;;;;8.80;1.13;;;18.00;94.90;;;;;;5092917;28;20068;-56
2022/09/16 10:01:00;;;;;;;8.43;0.73;;;18.10;93.50;;;;;;5097474;28;20106;-57
2022/09/16 10:03:27;;;;;;;10.93;0.60;;;18.20;94.00;;;;;;5095581;28;20084;-57
2022/09/16 10:05:52;;;;;;;8.43;1.52;;;18.30;93.90;;;;;;5111398;28;20035;-54
2022/09/16 10:08:44;;;;;;;6.72;1.55;;;18.40;93.60;;;;;;5110865;28;20051;-59
2022/09/16 10:11:30;;;;;;;11.48;0.70;;;18.50;93.20;;;;;;5097247;28;20456;-59
2022/09/16 10:13:58;;;;;;;9.70;1.35;;;18.70;93.20;;;;;;5095411;28;20027;-57
2022/09/16 10:16:30;;;;;;;13.75;1.33;;;18.70;92.60;;;;;;5099049;28;20044;-60
2022/09/16 10:19:04;;;;;;;7.00;1.05;;;18.80;92.80;;;;;;5077054;28;20039;-56
2022/09/16 10:21:46;;;;;;;8.20;0.60;;;18.90;92.00;;;;;;5104917;28;20047;-57
2022/09/16 10:24:34;;;;;;;5.93;1.20;;;19.00;91.50;;;;;;5097952;28;20059;-55
2022/09/16 10:27:01;;;;;;;2.92;0.30;;;19.00;90.40;;;;;;5112201;28;20035;-54
2022/09/16 10:29:28;;;;;;;5.25;0.40;;;18.90;88.60;;;;;;5102905;28;20500;-57
2022/09/16 10:31:54;;;;;;;;;;;18.70;88.60;;;;;;5104283;28;20050;-56
2022/09/16 10:34:39;;;;;;;5.65;0.40;;;18.60;89.10;;;;;;5090696;28;19916;-57
2022/09/16 10:37:11;;;;;;;5.55;0.80;;;18.70;90.00;;;;;;5092238;28;20046;-58
2022/09/16 10:39:39;;;;;;;6.20;0.63;;;18.90;90.30;;;;;;5078019;28;20087;-56
2022/09/16 10:42:19;;;;;;;9.23;0.63;;;19.00;88.20;;;;;;5086000;28;20424;-57
2022/09/16 10:44:47;;;;;;;5.38;0.57;;;19.10;87.70;;;;;;5091291;28;20040;-57
2022/09/16 10:47:31;;;;;;;4.88;0.45;;;19.20;88.70;;;;;;5095470;28;20051;-56
2022/09/16 10:50:06;;;;;;;4.50;0.63;;;19.20;87.20;;;;;;5098419;28;20040;-53
2022/09/16 10:52:42;;;;;;;9.88;0.90;;;19.10;84.80;;;;;;5098624;28;20023;-56
2022/09/16 10:55:25;;;;;;;13.83;1.00;;;18.80;87.70;;;;;;5095150;28;20028;-54
2022/09/16 10:57:52;;;;;;;6.20;0.77;;;18.50;90.70;;;;;;5084721;28;20039;-55
2022/09/16 11:00:23;;;;;;;10.88;0.73;;;18.10;91.60;;;;;;5093482;28;20111;-58
2022/09/16 11:03:25;;;;;;;10.90;0.82;;;17.80;92.20;;;;;;5090335;28;20540;-58
2022/09/16 11:06:14;;;;;;;5.57;0.47;;;17.60;92.70;;;;;;5096331;28;20438;-56
2022/09/16 11:08:42;;;;;;;5.75;0.95;;;17.50;93.10;;;;;;5098652;28;20094;-56
2022/09/16 11:11:20;;;;;;;4.43;0.32;;;17.60;93.60;;;;;;5090918;28;20131;-54
2022/09/16 11:13:48;;;;;;;9.40;0.75;;;17.80;93.30;;;;;;5101858;28;20035;-53
2022/09/16 11:16:13;;;;;;;7.05;1.05;;;17.90;93.40;;;;;;5105557;28;20097;-58
2022/09/16 11:18:54;;;;;;;7.43;0.80;;;18.10;93.20;;;;;;5091161;28;20044;-57
2022/09/16 11:21:32;;;;;;;6.97;0.70;;;18.30;92.50;;;;;;5082560;28;20031;-58
2022/09/16 11:24:22;;;;;;;8.25;0.70;;;18.40;92.40;;;;;;5101821;28;20047;-51
2022/09/16 11:26:53;;;;;;;10.57;0.98;;;18.50;92.00;;;;;;5088430;28;20045;-51
2022/09/16 11:29:47;;;;;;;18.63;1.10;;;18.60;92.00;;;;;;5070607;28;20047;-54
2022/09/16 11:32:34;;;;;;;6.70;0.60;;;18.50;91.10;;;;;;5071477;28;20029;-55
2022/09/16 11:35:25;;;;;;;5.00;0.52;;;18.10;90.70;;;;;;5070183;28;20049;-51
2022/09/16 11:38:20;;;;;;;10.13;1.33;;;17.70;91.10;;;;;;5071342;28;20094;-54
2022/09/16 11:40:56;;;;;;;5.35;0.70;;;17.70;92.20;;;;;;5111147;28;20046;-52
2022/09/16 11:43:40;;;;;;;6.32;1.00;;;17.80;92.50;;;;;;5101877;28;20036;-54
2022/09/16 11:46:22;;;;;;;6.07;1.25;;;18.00;92.50;;;;;;5090908;28;20040;-51
2022/09/16 11:49:12;;;;;;;9.23;0.68;;;18.20;91.90;;;;;;5087438;28;20089;-53
2022/09/16 11:51:45;;;;;;;8.45;0.50;;;18.20;91.20;;;;;;5070413;28;20032;-51
2022/09/16 11:54:28;;;;;;;6.55;0.50;;;18.40;91.70;;;;;;5087587;28;20043;-56
2022/09/16 11:57:02;;;;;;;8.20;0.93;;;18.50;92.80;;;;;;5090420;28;20047;-55
2022/09/16 11:59:34;;;;;;;14.13;0.80;;;18.60;91.90;;;;;;5091468;28;20830;-55
2022/09/16 12:02:24;;;;;;;8.82;0.43;;;18.70;91.60;;;;;;5089678;28;20044;-56
2022/09/16 12:04:56;;;;;;;4.47;0.70;;;18.90;90.20;;;;;;5096327;28;20063;-53
2022/09/16 12:07:28;;;;;;;5.43;0.75;;;19.00;90.40;;;;;;5068673;28;20040;-59
2022/09/16 12:10:11;;;;;;;5.10;0.80;;;19.10;89.90;;;;;;5096143;28;20143;-56
2022/09/16 12:13:00;;;;;;;4.07;0.40;;;19.20;87.60;;;;;;5110344;28;20040;-54
2022/09/16 12:15:34;;;;;;;6.05;0.47;;;19.30;85.40;;;;;;5086192;28;20028;-55
2022/09/16 12:18:29;;;;;;;30.88;1.58;;;19.40;87.80;;;;;;5107193;28;20039;-54
2022/09/16 12:21:33;;;;;;;11.93;0.60;;;19.50;85.10;;;;;;5104658;28;20063;-54
2022/09/16 12:24:23;;;;;;;21.63;1.10;;;19.30;84.40;;;;;;5069418;28;20039;-52
2022/09/16 12:27:20;;;;;;;14.77;1.40;;;19.10;87.50;;;;;;5092362;28;20139;-52
2022/09/16 12:30:03;;;;;;;7.07;0.93;;;18.90;90.30;;;;;;5090247;28;20246;-55
2022/09/16 12:32:42;;;;;;;7.90;0.60;;;18.90;90.50;;;;;;5089979;28;20047;-55
2022/09/16 12:35:21;;;;;;;5.25;0.40;;;18.80;90.50;;;;;;5105711;28;20028;-56
2022/09/16 12:37:47;;;;;;;6.05;0.70;;;18.90;88.60;;;;;;5076722;28;20037;-55
2022/09/16 12:40:19;;;;;;;6.80;0.30;;;18.90;86.20;;;;;;5095214;28;20420;-53
2022/09/16 12:42:50;;;;;;;5.18;0.30;;;19.10;84.80;;;;;;5114206;28;20172;-54
2022/09/16 12:45:24;;;;;;;35.10;1.90;;;19.20;84.40;;;;;;5111206;28;20069;-55
2022/09/16 12:48:36;;;;;;;12.88;0.32;;;19.10;84.50;;;;;;5112036;28;20063;-52
2022/09/16 12:51:35;;;;;;;4.43;0.20;;;18.70;85.90;;;;;;5064045;28;20048;-56
2022/09/16 12:54:22;;;;;;;4.10;0.25;;;18.20;87.30;;;;;;5089058;28;20035;-57
2022/09/16 12:57:25;;;;;;;1.33;0.20;;;17.70;90.10;;;;;;5104732;28;20074;-55
2022/09/16 13:00:07;;;;;;;5.07;0.40;;;17.40;91.00;;;;;;5112363;28;21128;-57
2022/09/16 13:02:41;;;;;;;2.33;0.25;;;17.20;92.40;;;;;;5112556;27;20181;-52
2022/09/16 13:05:21;;;;;;;4.13;0.32;;;17.20;92.80;;;;;;5097570;28;20044;-57
2022/09/16 13:07:50;;;;;;;5.93;0.40;;;17.40;92.80;;;;;;5093949;28;20088;-57
2022/09/16 13:10:25;;;;;;;5.28;0.40;;;17.50;92.70;;;;;;5083411;28;20049;-54
2022/09/16 13:12:54;;;;;;;4.03;0.43;;;17.70;92.70;;;;;;5096313;28;20035;-56
2022/09/16 13:15:32;;;;;;;6.20;0.40;;;17.90;91.60;;;;;;5095438;28;20032;-53
2022/09/16 13:18:12;;;;;;;4.15;0.47;;;18.00;92.70;;;;;;5076929;28;20136;-54
2022/09/16 13:20:58;;;;;;;8.20;0.80;;;18.10;92.30;;;;;;5093794;28;20143;-51